createdAt,value
2017-01-21T00:00:51.004Z,0
2017-01-21T00:01:50.949Z,0
2017-01-21T00:02:50.908Z,0
2017-01-21T00:03:50.859Z,0
2017-01-21T00:04:50.815Z,0
2017-01-21T00:05:50.767Z,0
2017-01-21T00:06:50.719Z,0
2017-01-21T00:07:50.672Z,0
2017-01-21T00:08:50.631Z,0
2017-01-21T00:09:50.584Z,0
2017-01-21T00:10:50.153Z,0
2017-01-21T00:11:50.107Z,0
2017-01-21T00:12:50.060Z,0
2017-01-21T00:13:50.396Z,0
2017-01-21T00:14:49.579Z,0
2017-01-21T00:15:49.923Z,0
2017-01-21T00:16:50.260Z,0
2017-01-21T00:17:50.210Z,0
2017-01-21T00:18:50.167Z,0
2017-01-21T00:19:49.739Z,0
2017-01-21T00:20:49.694Z,0
2017-01-21T00:21:49.639Z,0
2017-01-21T00:22:49.983Z,0
2017-01-21T00:23:49.944Z,0
2017-01-21T00:24:49.504Z,0
2017-01-21T00:25:49.848Z,0
2017-01-21T00:26:49.795Z,0
2017-01-21T00:27:49.364Z,0
2017-01-21T00:28:49.704Z,0
2017-01-21T00:29:49.659Z,0
2017-01-21T00:30:49.227Z,0
2017-01-21T00:31:49.561Z,0
2017-01-21T00:32:49.129Z,0
2017-01-21T00:33:49.470Z,0
2017-01-21T00:34:49.421Z,0
2017-01-21T00:35:48.995Z,0
2017-01-21T00:36:49.334Z,0
2017-01-21T00:37:49.285Z,0
2017-01-21T00:38:49.239Z,0
2017-01-21T00:39:48.809Z,0
2017-01-21T00:40:49.150Z,0
2017-01-21T00:41:48.718Z,0
2017-01-21T00:42:48.672Z,0
2017-01-21T00:43:48.639Z,0
2017-01-21T00:44:48.961Z,0
2017-01-21T00:45:48.531Z,0
2017-01-21T00:46:48.873Z,0
2017-01-21T00:47:48.435Z,0
2017-01-21T00:48:48.776Z,0
2017-01-21T00:49:48.726Z,0
2017-01-21T00:50:48.684Z,0
2017-01-21T00:51:48.642Z,0
2017-01-21T00:52:48.588Z,0
2017-01-21T00:53:48.155Z,0
2017-01-21T00:54:48.496Z,0
2017-01-21T00:55:48.453Z,0
2017-01-21T00:56:48.021Z,0
2017-01-21T00:57:48.352Z,0
2017-01-21T00:58:48.315Z,0
2017-01-21T00:59:48.260Z,0
2017-01-21T01:00:48.218Z,0
2017-01-21T01:01:48.173Z,0
2017-01-21T01:02:48.122Z,0
2017-01-21T01:03:47.694Z,0
2017-01-21T01:04:47.644Z,0
2017-01-21T01:05:47.988Z,0
2017-01-21T01:06:47.937Z,0
2017-01-21T01:07:47.890Z,0
2017-01-21T01:08:47.858Z,0
2017-01-21T01:09:47.805Z,0
2017-01-21T01:10:47.756Z,0
2017-01-21T01:11:47.743Z,0
2017-01-21T01:12:47.660Z,0
2017-01-21T01:13:47.228Z,0
2017-01-21T01:14:47.188Z,0
2017-01-21T01:15:47.145Z,0
2017-01-21T01:16:47.485Z,0
2017-01-21T01:17:47.439Z,0
2017-01-21T01:18:46.997Z,0
2017-01-21T01:19:46.952Z,0
2017-01-21T01:20:47.289Z,0
2017-01-21T01:21:46.863Z,0
2017-01-21T01:22:47.208Z,0
2017-01-21T01:23:47.184Z,0
2017-01-21T01:24:47.105Z,0
2017-01-21T01:25:47.061Z,0
2017-01-21T01:26:47.015Z,0
2017-01-21T01:27:46.968Z,0
2017-01-21T01:28:46.920Z,0
2017-01-21T01:29:46.492Z,0
2017-01-21T01:30:46.830Z,0
2017-01-21T01:31:46.784Z,0
2017-01-21T01:32:46.351Z,0
2017-01-21T01:33:46.690Z,0
2017-01-21T01:34:46.646Z,0
2017-01-21T01:35:45.830Z,0
2017-01-21T01:36:46.562Z,0
2017-01-21T01:37:46.506Z,0
2017-01-21T01:38:46.464Z,0
2017-01-21T01:39:46.040Z,0
2017-01-21T01:40:46.391Z,0
2017-01-21T01:41:46.320Z,0
2017-01-21T01:42:46.279Z,0
2017-01-21T01:43:46.234Z,0
2017-01-21T01:44:46.182Z,0
2017-01-21T01:45:46.143Z,0
2017-01-21T01:46:45.704Z,0
2017-01-21T01:47:46.045Z,0
2017-01-21T01:48:46.002Z,0
2017-01-21T01:49:45.607Z,0
2017-01-21T01:50:45.916Z,0
2017-01-21T01:51:45.868Z,0
2017-01-21T01:52:45.430Z,0
2017-01-21T01:53:45.768Z,0
2017-01-21T01:54:45.724Z,0
2017-01-21T01:55:45.295Z,0
2017-01-21T01:56:45.637Z,0
2017-01-21T01:57:45.587Z,0
2017-01-21T01:58:44.800Z,0
2017-01-21T01:59:45.497Z,0
2017-01-21T02:00:45.449Z,0
2017-01-21T02:01:44.631Z,0
2017-01-21T02:02:45.354Z,0
2017-01-21T02:03:45.314Z,0
2017-01-21T02:04:44.881Z,0
2017-01-21T02:05:45.217Z,0
2017-01-21T02:06:45.170Z,0
2017-01-21T02:07:45.124Z,0
2017-01-21T02:08:45.080Z,0
2017-01-21T02:09:45.030Z,0
2017-01-21T02:10:44.988Z,0
2017-01-21T02:11:44.555Z,0
2017-01-21T02:12:44.517Z,0
2017-01-21T02:13:44.847Z,0
2017-01-21T02:14:44.417Z,0
2017-01-21T02:15:44.758Z,0
2017-01-21T02:16:44.712Z,0
2017-01-21T02:17:44.661Z,0
2017-01-21T02:18:44.235Z,0
2017-01-21T02:19:44.569Z,0
2017-01-21T02:20:44.527Z,0
2017-01-21T02:21:44.475Z,0
2017-01-21T02:22:44.431Z,0
2017-01-21T02:23:44.389Z,0
2017-01-21T02:24:44.340Z,0
2017-01-21T02:25:44.295Z,0
2017-01-21T02:26:43.866Z,0
2017-01-21T02:27:44.201Z,0
2017-01-21T02:28:44.155Z,0
2017-01-21T02:29:44.108Z,0
2017-01-21T02:30:44.066Z,0
2017-01-21T02:31:43.631Z,0
2017-01-21T02:32:43.977Z,0
2017-01-21T02:33:43.543Z,0
2017-01-21T02:34:43.491Z,0
2017-01-21T02:35:43.448Z,0
2017-01-21T02:36:43.428Z,0
2017-01-21T02:37:43.737Z,0
2017-01-21T02:38:43.693Z,0
2017-01-21T02:39:43.260Z,0
2017-01-21T02:40:43.595Z,0
2017-01-21T02:41:43.559Z,0
2017-01-21T02:42:43.123Z,0
2017-01-21T02:43:43.072Z,0
2017-01-21T02:44:43.034Z,0
2017-01-21T02:45:43.379Z,0
2017-01-21T02:46:43.333Z,0
2017-01-21T02:47:42.890Z,0
2017-01-21T02:48:43.233Z,0
2017-01-21T02:49:42.800Z,0
2017-01-21T02:50:43.146Z,0
2017-01-21T02:51:43.093Z,0
2017-01-21T02:52:42.663Z,0
2017-01-21T02:53:42.615Z,0
2017-01-21T02:54:42.568Z,0
2017-01-21T02:55:42.930Z,0
2017-01-21T02:56:42.865Z,0
2017-01-21T02:57:42.816Z,0
2017-01-21T02:58:42.779Z,0
2017-01-21T02:59:42.724Z,0
2017-01-21T03:00:42.292Z,0
2017-01-21T03:01:42.251Z,0
2017-01-21T03:02:42.585Z,0
2017-01-21T03:03:41.772Z,0
2017-01-21T03:04:42.492Z,0
2017-01-21T03:05:42.057Z,0
2017-01-21T03:06:42.404Z,0
2017-01-21T03:07:42.355Z,0
2017-01-21T03:08:42.402Z,0
2017-01-21T03:09:42.269Z,0
2017-01-21T03:10:41.447Z,0
2017-01-21T03:11:41.789Z,0
2017-01-21T03:12:42.128Z,0
2017-01-21T03:13:41.699Z,0
2017-01-21T03:14:42.079Z,0
2017-01-21T03:15:41.608Z,0
2017-01-21T03:16:41.936Z,0
2017-01-21T03:17:41.890Z,0
2017-01-21T03:18:41.853Z,0
2017-01-21T03:19:41.798Z,0
2017-01-21T03:20:41.757Z,0
2017-01-21T03:21:41.323Z,0
2017-01-21T03:22:41.283Z,0
2017-01-21T03:23:41.615Z,0
2017-01-21T03:24:41.186Z,0
2017-01-21T03:25:41.519Z,0
2017-01-21T03:26:41.476Z,0
2017-01-21T03:27:41.046Z,0
2017-01-21T03:28:41.386Z,0
2017-01-21T03:29:41.339Z,0
2017-01-21T03:30:40.908Z,0
2017-01-21T03:31:40.871Z,0
2017-01-21T03:32:41.201Z,0
2017-01-21T03:33:40.385Z,0
2017-01-21T03:34:41.117Z,0
2017-01-21T03:35:41.066Z,0
2017-01-21T03:36:41.022Z,0
2017-01-21T03:37:40.973Z,0
2017-01-21T03:38:40.925Z,0
2017-01-21T03:39:40.881Z,0
2017-01-21T03:40:40.449Z,0
2017-01-21T03:41:40.785Z,0
2017-01-21T03:42:40.743Z,0
2017-01-21T03:43:40.699Z,0
2017-01-21T03:44:40.265Z,0
2017-01-21T03:45:40.603Z,0
2017-01-21T03:46:40.176Z,0
2017-01-21T03:47:39.739Z,0
2017-01-21T03:48:40.469Z,0
2017-01-21T03:49:40.419Z,0
2017-01-21T03:50:39.991Z,0
2017-01-21T03:51:40.336Z,0
2017-01-21T03:52:40.279Z,0
2017-01-21T03:53:40.235Z,0
2017-01-21T03:54:39.800Z,0
2017-01-21T03:55:40.146Z,0
2017-01-21T03:56:40.111Z,0
2017-01-21T03:57:40.048Z,0
2017-01-21T03:58:40.008Z,0
2017-01-21T03:59:39.570Z,0
2017-01-21T04:00:39.916Z,0
2017-01-21T04:01:39.880Z,0
2017-01-21T04:02:39.823Z,0
2017-01-21T04:03:39.774Z,0
2017-01-21T04:04:39.724Z,0
2017-01-21T04:05:39.682Z,0
2017-01-21T04:06:39.636Z,0
2017-01-21T04:07:39.592Z,0
2017-01-21T04:08:39.544Z,0
2017-01-21T04:09:39.496Z,0
2017-01-21T04:10:39.455Z,0
2017-01-21T04:11:39.402Z,0
2017-01-21T04:12:38.973Z,0
2017-01-21T04:13:39.308Z,0
2017-01-21T04:14:38.888Z,0
2017-01-21T04:15:38.834Z,0
2017-01-21T04:16:39.175Z,0
2017-01-21T04:17:39.175Z,0
2017-01-21T04:18:38.696Z,0
2017-01-21T04:19:39.038Z,0
2017-01-21T04:20:38.995Z,0
2017-01-21T04:21:38.948Z,0
2017-01-21T04:22:38.899Z,0
2017-01-21T04:23:38.849Z,0
2017-01-21T04:24:38.802Z,0
2017-01-21T04:25:38.001Z,0
2017-01-21T04:26:38.327Z,0
2017-01-21T04:27:37.897Z,0
2017-01-21T04:28:38.625Z,0
2017-01-21T04:29:38.580Z,0
2017-01-21T04:30:37.790Z,0
2017-01-21T04:31:38.489Z,0
2017-01-21T04:32:38.441Z,0
2017-01-21T04:33:38.391Z,0
2017-01-21T04:34:38.343Z,0
2017-01-21T04:35:38.302Z,0
2017-01-21T04:36:37.867Z,0
2017-01-21T04:37:37.823Z,0
2017-01-21T04:38:38.162Z,0
2017-01-21T04:39:38.116Z,0
2017-01-21T04:40:38.077Z,0
2017-01-21T04:41:38.022Z,0
2017-01-21T04:42:37.592Z,0
2017-01-21T04:43:37.547Z,0
2017-01-21T04:44:37.494Z,0
2017-01-21T04:45:37.839Z,0
2017-01-21T04:46:37.790Z,0
2017-01-21T04:47:36.979Z,0
2017-01-21T04:48:37.315Z,0
2017-01-21T04:49:37.270Z,0
2017-01-21T04:50:37.606Z,0
2017-01-21T04:51:37.567Z,0
2017-01-21T04:52:37.518Z,0
2017-01-21T04:53:37.468Z,0
2017-01-21T04:54:37.423Z,0
2017-01-21T04:55:37.380Z,0
2017-01-21T04:56:37.343Z,0
2017-01-21T04:57:37.297Z,0
2017-01-21T04:58:36.852Z,0
2017-01-21T04:59:37.199Z,0
2017-01-21T05:00:36.376Z,0
2017-01-21T05:01:37.126Z,0
2017-01-21T05:02:37.056Z,0
2017-01-21T05:03:37.018Z,0
2017-01-21T05:04:36.962Z,0
2017-01-21T05:05:36.919Z,0
2017-01-21T05:06:36.871Z,0
2017-01-21T05:07:36.834Z,0
2017-01-21T05:08:36.786Z,0
2017-01-21T05:09:36.741Z,0
2017-01-21T05:10:36.690Z,0
2017-01-21T05:11:36.650Z,0
2017-01-21T05:12:36.608Z,0
2017-01-21T05:13:36.551Z,0
2017-01-21T05:14:36.119Z,0
2017-01-21T05:15:36.069Z,0
2017-01-21T05:16:36.409Z,0
2017-01-21T05:17:36.365Z,0
2017-01-21T05:18:35.935Z,0
2017-01-21T05:19:36.271Z,0
2017-01-21T05:20:35.843Z,0
2017-01-21T05:21:35.794Z,0
2017-01-21T05:22:35.749Z,0
2017-01-21T05:23:35.711Z,0
2017-01-21T05:24:35.657Z,0
2017-01-21T05:25:35.997Z,0
2017-01-21T05:26:35.947Z,0
2017-01-21T05:27:35.901Z,0
2017-01-21T05:28:35.864Z,0
2017-01-21T05:29:35.423Z,0
2017-01-21T05:30:35.776Z,0
2017-01-21T05:31:35.715Z,0
2017-01-21T05:32:35.293Z,0
2017-01-21T05:33:35.240Z,0
2017-01-21T05:34:35.196Z,0
2017-01-21T05:35:35.149Z,0
2017-01-21T05:36:35.106Z,0
2017-01-21T05:37:35.444Z,0
2017-01-21T05:38:35.394Z,0
2017-01-21T05:39:35.348Z,0
2017-01-21T05:40:34.536Z,0
2017-01-21T05:41:35.256Z,0
2017-01-21T05:42:35.206Z,0
2017-01-21T05:43:35.164Z,0
2017-01-21T05:44:34.731Z,0
2017-01-21T05:45:34.686Z,0
2017-01-21T05:46:35.022Z,0
2017-01-21T05:47:34.978Z,0
2017-01-21T05:48:34.933Z,0
2017-01-21T05:49:34.893Z,0
2017-01-21T05:50:34.838Z,0
2017-01-21T05:51:34.414Z,0
2017-01-21T05:52:34.748Z,0
2017-01-21T05:53:34.702Z,0
2017-01-21T05:54:34.267Z,0
2017-01-21T05:55:34.612Z,0
2017-01-21T05:56:34.173Z,0
2017-01-21T05:57:34.518Z,0
2017-01-21T05:58:34.480Z,0
2017-01-21T05:59:34.423Z,0
2017-01-21T06:00:34.379Z,0
2017-01-21T06:01:34.327Z,0
2017-01-21T06:02:34.287Z,0
2017-01-21T06:03:33.855Z,0
2017-01-21T06:04:34.192Z,0
2017-01-21T06:05:34.154Z,0
2017-01-21T06:06:33.334Z,0
2017-01-21T06:07:34.060Z,0
2017-01-21T06:08:34.012Z,0
2017-01-21T06:09:33.962Z,0
2017-01-21T06:10:33.531Z,0
2017-01-21T06:11:33.868Z,0
2017-01-21T06:12:33.822Z,0
2017-01-21T06:13:33.777Z,0
2017-01-21T06:14:33.730Z,0
2017-01-21T06:15:33.690Z,0
2017-01-21T06:16:32.881Z,0
2017-01-21T06:17:33.597Z,0
2017-01-21T06:18:33.556Z,0
2017-01-21T06:19:32.730Z,0
2017-01-21T06:20:33.462Z,0
2017-01-21T06:21:33.408Z,0
2017-01-21T06:22:32.978Z,0
2017-01-21T06:23:32.934Z,0
2017-01-21T06:24:32.881Z,0
2017-01-21T06:25:32.876Z,0
2017-01-21T06:26:33.176Z,0
2017-01-21T06:27:33.130Z,0
2017-01-21T06:28:33.081Z,0
2017-01-21T06:29:33.039Z,0
2017-01-21T06:30:32.991Z,0
2017-01-21T06:31:32.561Z,0
2017-01-21T06:32:32.902Z,4
2017-01-21T06:33:32.853Z,4
2017-01-21T06:34:32.427Z,0
2017-01-21T06:35:32.763Z,0
2017-01-21T06:36:32.713Z,4
2017-01-21T06:37:31.895Z,0
2017-01-21T06:38:32.626Z,4
2017-01-21T06:39:32.577Z,8
2017-01-21T06:40:32.145Z,4
2017-01-21T06:41:32.483Z,4
2017-01-21T06:42:32.437Z,8
2017-01-21T06:43:32.007Z,8
2017-01-21T06:44:32.345Z,8
2017-01-21T06:45:32.298Z,12
2017-01-21T06:46:31.874Z,12
2017-01-21T06:47:31.820Z,16
2017-01-21T06:48:32.160Z,16
2017-01-21T06:49:31.727Z,20
2017-01-21T06:50:32.070Z,24
2017-01-21T06:51:32.023Z,24
2017-01-21T06:52:31.981Z,28
2017-01-21T06:53:31.928Z,36
2017-01-21T06:54:31.499Z,36
2017-01-21T06:55:31.835Z,40
2017-01-21T06:56:31.791Z,44
2017-01-21T06:57:31.743Z,48
2017-01-21T06:58:30.931Z,52
2017-01-21T06:59:31.270Z,60
2017-01-21T07:00:31.613Z,64
2017-01-21T07:01:31.562Z,72
2017-01-21T07:02:31.515Z,76
2017-01-21T07:03:31.472Z,84
2017-01-21T07:04:31.036Z,92
2017-01-21T07:05:31.378Z,96
2017-01-21T07:06:30.945Z,104
2017-01-21T07:07:31.289Z,112
2017-01-21T07:08:31.237Z,120
2017-01-21T07:09:31.194Z,128
2017-01-21T07:10:31.147Z,136
2017-01-21T07:11:31.097Z,144
2017-01-21T07:12:30.677Z,156
2017-01-21T07:13:31.007Z,160
2017-01-21T07:14:30.966Z,172
2017-01-21T07:15:30.530Z,184
2017-01-21T07:16:30.870Z,196
2017-01-21T07:17:30.440Z,212
2017-01-21T07:18:30.776Z,224
2017-01-21T07:19:30.347Z,236
2017-01-21T07:20:30.688Z,248
2017-01-21T07:21:30.636Z,260
2017-01-21T07:22:30.593Z,272
2017-01-21T07:23:30.162Z,284
2017-01-21T07:24:29.731Z,296
2017-01-21T07:25:30.452Z,308
2017-01-21T07:26:30.409Z,324
2017-01-21T07:27:30.359Z,340
2017-01-21T07:28:30.319Z,360
2017-01-21T07:29:29.496Z,368
2017-01-21T07:30:29.837Z,368
2017-01-21T07:31:29.792Z,376
2017-01-21T07:32:29.745Z,392
2017-01-21T07:33:30.085Z,412
2017-01-21T07:34:30.047Z,432
2017-01-21T07:35:29.236Z,448
2017-01-21T07:36:29.948Z,464
2017-01-21T07:37:29.904Z,476
2017-01-21T07:38:29.849Z,500
2017-01-21T07:39:29.807Z,528
2017-01-21T07:40:29.378Z,548
2017-01-21T07:41:29.713Z,572
2017-01-21T07:42:29.286Z,580
2017-01-21T07:43:29.653Z,580
2017-01-21T07:44:29.193Z,600
2017-01-21T07:45:29.534Z,640
2017-01-21T07:46:29.482Z,656
2017-01-21T07:47:29.438Z,652
2017-01-21T07:48:29.006Z,652
2017-01-21T07:49:28.959Z,676
2017-01-21T07:50:28.914Z,692
2017-01-21T07:51:28.867Z,708
2017-01-21T07:52:29.209Z,724
2017-01-21T07:53:29.158Z,728
2017-01-21T07:54:28.734Z,736
2017-01-21T07:55:28.684Z,764
2017-01-21T07:56:28.655Z,820
2017-01-21T07:57:28.976Z,860
2017-01-21T07:58:28.934Z,892
2017-01-21T07:59:28.499Z,912
2017-01-21T08:00:28.848Z,948
2017-01-21T08:01:28.795Z,972
2017-01-21T08:02:28.369Z,968
2017-01-21T08:03:27.931Z,972
2017-01-21T08:04:28.661Z,1020
2017-01-21T08:05:28.248Z,1056
2017-01-21T08:06:28.570Z,1060
2017-01-21T08:07:28.135Z,1068
2017-01-21T08:08:28.468Z,1060
2017-01-21T08:09:28.045Z,1040
2017-01-21T08:10:28.385Z,1056
2017-01-21T08:11:27.945Z,1072
2017-01-21T08:12:28.286Z,1092
2017-01-21T08:13:28.241Z,1084
2017-01-21T08:14:27.805Z,1120
2017-01-21T08:15:27.404Z,1136
2017-01-21T08:16:28.099Z,1180
2017-01-21T08:17:27.674Z,1208
2017-01-21T08:18:28.017Z,1216
2017-01-21T08:19:27.965Z,1256
2017-01-21T08:20:27.913Z,1276
2017-01-21T08:21:28.025Z,1316
2017-01-21T08:22:27.981Z,1324
2017-01-21T08:23:28.328Z,1360
2017-01-21T08:24:27.885Z,1400
2017-01-21T08:25:28.227Z,1436
2017-01-21T08:26:28.188Z,1440
2017-01-21T08:27:28.139Z,1480
2017-01-21T08:28:28.095Z,1488
2017-01-21T08:29:28.041Z,1508
2017-01-21T08:30:27.617Z,1532
2017-01-21T08:31:27.565Z,1504
2017-01-21T08:32:27.524Z,1524
2017-01-21T08:33:27.860Z,1576
2017-01-21T08:34:27.810Z,1596
2017-01-21T08:35:27.009Z,1652
2017-01-21T08:36:27.752Z,1668
2017-01-21T08:37:27.289Z,1696
2017-01-21T08:38:26.854Z,1760
2017-01-21T08:39:27.593Z,1776
2017-01-21T08:40:27.154Z,1768
2017-01-21T08:41:27.102Z,1712
2017-01-21T08:42:27.447Z,1720
2017-01-21T08:43:27.396Z,1756
2017-01-21T08:44:27.348Z,1788
2017-01-21T08:45:27.303Z,1792
2017-01-21T08:46:26.871Z,1804
2017-01-21T08:47:26.840Z,1792
2017-01-21T08:48:26.780Z,1828
2017-01-21T08:49:26.736Z,1888
2017-01-21T08:50:27.075Z,1948
2017-01-21T08:51:27.033Z,1972
2017-01-21T08:52:26.598Z,1916
2017-01-21T08:53:26.946Z,1900
2017-01-21T08:54:26.890Z,1940
2017-01-21T08:55:26.081Z,1972
2017-01-21T08:56:26.799Z,1988
2017-01-21T08:57:26.379Z,2016
2017-01-21T08:58:26.724Z,2024
2017-01-21T08:59:25.898Z,2048
2017-01-21T09:00:26.621Z,2104
2017-01-21T09:01:26.580Z,2144
2017-01-21T09:02:26.141Z,2116
2017-01-21T09:03:26.097Z,2128
2017-01-21T09:04:26.052Z,2124
2017-01-21T09:05:26.396Z,2172
2017-01-21T09:06:25.578Z,2192
2017-01-21T09:07:25.912Z,2232
2017-01-21T09:08:26.275Z,2240
2017-01-21T09:09:25.433Z,2252
2017-01-21T09:10:25.780Z,2264
2017-01-21T09:11:26.111Z,2300
2017-01-21T09:12:26.080Z,2312
2017-01-21T09:13:26.024Z,2344
2017-01-21T09:14:25.596Z,2348
2017-01-21T09:15:25.937Z,2344
2017-01-21T09:16:25.519Z,2348
2017-01-21T09:17:25.852Z,2396
2017-01-21T09:18:25.027Z,2476
2017-01-21T09:19:25.364Z,2488
2017-01-21T09:20:25.704Z,2544
2017-01-21T09:21:24.893Z,2604
2017-01-21T09:22:25.614Z,2652
2017-01-21T09:23:25.189Z,2660
2017-01-21T09:24:24.756Z,2676
2017-01-21T09:25:25.478Z,2684
2017-01-21T09:26:25.046Z,2644
2017-01-21T09:27:25.388Z,2640
2017-01-21T09:28:24.657Z,2692
2017-01-21T09:29:25.297Z,2676
2017-01-21T09:30:25.252Z,2696
2017-01-21T09:31:24.826Z,2688
2017-01-21T09:32:24.423Z,2728
2017-01-21T09:33:24.732Z,2812
2017-01-21T09:34:24.304Z,2904
2017-01-21T09:35:24.265Z,2972
2017-01-21T09:36:24.594Z,3024
2017-01-21T09:37:24.955Z,3080
2017-01-21T09:38:24.890Z,3124
2017-01-21T09:39:24.845Z,3272
2017-01-21T09:40:24.411Z,3312
2017-01-21T09:41:24.750Z,3440
2017-01-21T09:42:24.318Z,3688
2017-01-21T09:43:24.662Z,3912
2017-01-21T09:44:24.613Z,4076
2017-01-21T09:45:24.186Z,4212
2017-01-21T09:46:24.139Z,4212
2017-01-21T09:47:24.095Z,4256
2017-01-21T09:48:24.044Z,4200
2017-01-21T09:49:24.001Z,4040
2017-01-21T09:50:23.584Z,4016
2017-01-21T09:51:23.553Z,4084
2017-01-21T09:52:23.476Z,4048
2017-01-21T09:53:23.823Z,3980
2017-01-21T09:54:24.160Z,3896
2017-01-21T09:55:23.728Z,3900
2017-01-21T09:56:23.681Z,3984
2017-01-21T09:57:24.023Z,3932
2017-01-21T09:58:23.593Z,4000
2017-01-21T09:59:23.967Z,4200
2017-01-21T10:00:22.732Z,4200
2017-01-21T10:01:23.845Z,4132
2017-01-21T10:02:23.801Z,4248
2017-01-21T10:03:23.365Z,4280
2017-01-21T10:04:23.710Z,4256
2017-01-21T10:05:23.677Z,4356
2017-01-21T10:06:23.623Z,4352
2017-01-21T10:07:23.571Z,4364
2017-01-21T10:08:23.147Z,4400
2017-01-21T10:09:22.708Z,4412
2017-01-21T10:10:23.433Z,4476
2017-01-21T10:11:23.024Z,4504
2017-01-21T10:12:22.972Z,4484
2017-01-21T10:13:23.296Z,4496
2017-01-21T10:14:22.871Z,4492
2017-01-21T10:15:23.213Z,4504
2017-01-21T10:16:23.160Z,4508
2017-01-21T10:17:23.126Z,4520
2017-01-21T10:18:23.073Z,4612
2017-01-21T10:19:22.644Z,4620
2017-01-21T10:20:22.995Z,4632
2017-01-21T10:21:22.937Z,4664
2017-01-21T10:22:22.892Z,4740
2017-01-21T10:23:22.847Z,4768
2017-01-21T10:24:22.425Z,4764
2017-01-21T10:25:22.374Z,4796
2017-01-21T10:26:21.952Z,4804
2017-01-21T10:27:22.289Z,4764
2017-01-21T10:28:22.628Z,4760
2017-01-21T10:29:22.194Z,4740
2017-01-21T10:30:22.529Z,4672
2017-01-21T10:31:21.722Z,4668
2017-01-21T10:32:21.309Z,4716
2017-01-21T10:33:22.016Z,4760
2017-01-21T10:34:22.365Z,4772
2017-01-21T10:35:22.322Z,4780
2017-01-21T10:36:21.880Z,4824
2017-01-21T10:37:21.450Z,4972
2017-01-21T10:38:22.173Z,5204
2017-01-21T10:39:22.135Z,5384
2017-01-21T10:40:21.706Z,5436
2017-01-21T10:41:21.660Z,5544
2017-01-21T10:42:22.002Z,5632
2017-01-21T10:43:21.955Z,5624
2017-01-21T10:44:21.909Z,5596
2017-01-21T10:45:21.090Z,5656
2017-01-21T10:46:21.823Z,5732
2017-01-21T10:47:21.399Z,5664
2017-01-21T10:48:21.725Z,5668
2017-01-21T10:49:21.325Z,5812
2017-01-21T10:50:21.653Z,5868
2017-01-21T10:51:20.823Z,5968
2017-01-21T10:52:20.777Z,6068
2017-01-21T10:53:21.508Z,6016
2017-01-21T10:54:21.466Z,6028
2017-01-21T10:55:21.032Z,6020
2017-01-21T10:56:20.604Z,5904
2017-01-21T10:57:20.607Z,5952
2017-01-21T10:58:20.901Z,6052
2017-01-21T10:59:21.249Z,5992
2017-01-21T11:00:20.823Z,5892
2017-01-21T11:01:20.774Z,5888
2017-01-21T11:02:21.109Z,5828
2017-01-21T11:03:21.070Z,5548
2017-01-21T11:04:20.250Z,5400
2017-01-21T11:05:20.593Z,5596
2017-01-21T11:06:20.545Z,5808
2017-01-21T11:07:20.509Z,6076
2017-01-21T11:08:20.460Z,6232
2017-01-21T11:09:20.043Z,6208
2017-01-21T11:10:20.759Z,6268
2017-01-21T11:11:20.712Z,6364
2017-01-21T11:12:20.668Z,6100
2017-01-21T11:13:20.626Z,5936
2017-01-21T11:14:20.193Z,6020
2017-01-21T11:15:20.617Z,6160
2017-01-21T11:16:20.112Z,6004
2017-01-21T11:17:20.066Z,5728
2017-01-21T11:18:20.405Z,5800
2017-01-21T11:19:19.977Z,5936
2017-01-21T11:20:19.941Z,5848
2017-01-21T11:21:20.280Z,5720
2017-01-21T11:22:20.236Z,5568
2017-01-21T11:23:20.192Z,5488
2017-01-21T11:24:19.757Z,5252
2017-01-21T11:25:20.095Z,5088
2017-01-21T11:26:20.054Z,5116
2017-01-21T11:27:20.757Z,5144
2017-01-21T11:28:19.971Z,5228
2017-01-21T11:29:19.953Z,5220
2017-01-21T11:30:19.499Z,5288
2017-01-21T11:31:19.853Z,5160
2017-01-21T11:32:19.797Z,4856
2017-01-21T11:33:19.753Z,4860
2017-01-21T11:34:19.714Z,4912
2017-01-21T11:35:18.891Z,4876
2017-01-21T11:36:19.242Z,5000
2017-01-21T11:37:19.193Z,5288
2017-01-21T11:38:19.533Z,5336
2017-01-21T11:39:19.488Z,5432
2017-01-21T11:40:19.450Z,5364
2017-01-21T11:41:19.401Z,5188
2017-01-21T11:42:19.360Z,5152
2017-01-21T11:43:19.318Z,5160
2017-01-21T11:44:19.272Z,5116
2017-01-21T11:45:19.225Z,5064
2017-01-21T11:46:19.181Z,4924
2017-01-21T11:47:19.143Z,4736
2017-01-21T11:48:19.101Z,4760
2017-01-21T11:49:18.681Z,4808
2017-01-21T11:50:19.017Z,4940
2017-01-21T11:51:18.972Z,4960
2017-01-21T11:52:18.148Z,5016
2017-01-21T11:53:18.492Z,4988
2017-01-21T11:54:18.832Z,4992
2017-01-21T11:55:18.806Z,5116
2017-01-21T11:56:18.358Z,5332
2017-01-21T11:57:18.701Z,5572
2017-01-21T11:58:18.666Z,5788
2017-01-21T11:59:17.844Z,6060
2017-01-21T12:00:18.187Z,6260
2017-01-21T12:01:18.535Z,6488
2017-01-21T12:02:18.489Z,6600
2017-01-21T12:03:18.454Z,6600
2017-01-21T12:04:18.395Z,6560
2017-01-21T12:05:18.357Z,6480
2017-01-21T12:06:18.312Z,6372
2017-01-21T12:07:18.278Z,6300
2017-01-21T12:08:18.226Z,6372
2017-01-21T12:09:17.405Z,6020
2017-01-21T12:10:17.748Z,5792
2017-01-21T12:11:18.093Z,5788
2017-01-21T12:12:18.044Z,5836
2017-01-21T12:13:18.004Z,5872
2017-01-21T12:14:17.954Z,6056
2017-01-21T12:15:17.533Z,6024
2017-01-21T12:16:17.892Z,6044
2017-01-21T12:17:17.829Z,5988
2017-01-21T12:18:17.409Z,5912
2017-01-21T12:19:17.360Z,5816
2017-01-21T12:20:17.331Z,5712
2017-01-21T12:21:17.278Z,5680
2017-01-21T12:22:17.613Z,5772
2017-01-21T12:23:17.570Z,5744
2017-01-21T12:24:17.139Z,5676
2017-01-21T12:25:17.094Z,5764
2017-01-21T12:26:17.058Z,5864
2017-01-21T12:27:17.036Z,5880
2017-01-21T12:28:16.586Z,5908
2017-01-21T12:29:16.926Z,6136
2017-01-21T12:30:16.492Z,6276
2017-01-21T12:31:17.220Z,6236
2017-01-21T12:32:16.796Z,6188
2017-01-21T12:33:17.136Z,6224
